Terminal Aerodrome Forecast
Issued by NWS Greer, SC

Current Version | Previous Version | Text Only | Print | Product List | Glossary On
Versions: 1 2 3 4 5 6 7 8 9 10 11 12 13 14
000
FTUS42 KGSP 280536
TAFGSP
TAF
KGSP 280536Z 2806/2906 04004KT P6SM SCT045
     FM280900 04004KT P6SM BKN060
     FM281200 03004KT P6SM SCT017
      TEMPO 2812/2816 BKN015
     FM281600 07006KT P6SM SCT050 SCT200
     FM290300 00000KT P6SM FEW250=

USA.gov is the U.S. government's official web portal to all federal, state and local government web resources and services.